Delray Beach, FL (33445)

4:53 PM EDT on March 24, 2017 (GMT -0400)
Bexley Park | | Change Station

Elev 15 ft 26.48 °N, 80.12 °W | Updated 9 minutes ago

Mostly Cloudy
Mostly Cloudy
74.0 °F
Feels Like 77 °F
N
7.0
Wind Variable Wind from East
Gusts 18.0 mph

Today
High -- | Low -- °F
--% Chance of Precip.
Yesterday
High -- | Low -- °F
Precip. -- in
Pressure 30.24 in
Visibility 10.0 miles
Clouds Scattered Clouds 3600 ft
Scattered Clouds 6000 ft
Mostly Cloudy 16000 ft
Heat Index 77 °F
Dew Point 60 °F
Humidity 62%
Rainfall 0.01 in
Snow Depth Not available.
7:19 AM 7:33 PM
Waning Crescent, 13% visible
METAR KPMP 241953Z 09012G21KT 10SM SCT036 SCT060 BKN160 26/16 A3023 RMK AO2 SLP238 T02560161
Pressure 30.24 in
Visibility 10.0 miles
Clouds Scattered Clouds 3600 ft
Scattered Clouds 6000 ft
Mostly Cloudy 16000 ft
Heat Index 77 °F
Dew Point 60 °F
Humidity 62%
Rainfall 0.01 in
Snow Depth Not available.
7:19 AM 7:33 PM
Waning Crescent, 13% visible
METAR KPMP 241953Z 09012G21KT 10SM SCT036 SCT060 BKN160 26/16 A3023 RMK AO2 SLP238 T02560161

Get Severe Weather Alerts

Thanks for signing up!

Be on the lookout for a verification email in your inbox.

You'll start receiving the daily forecast at 8 AM.

×

10-Day Weather Forecast

Almanac

Astronomy

Mar. 24, 2017 Rise Set
Actual Time
Civil Twilight
Nautical Twilight
Astronomical Twilight
Moon
Length of Visible Light
Length of Day
Tomorrow will be .
, % of the Moon is Illuminated

Today's Extremes

State Highs State Lows

Community

WunderPhotos

Upload Photos

1,962,540 photos uploaded!

WunderBlog® & News

Nearby

Air Quality

  Air Quality AQ Index Pollutant
Not available.

Snow Depth

Station Depth Elevation

Earthquake Activity

City Distance Mag. Time & Date
Minimum magnitude displayed is 2.5.

Earthquake Activity

City Distance Mag. Time & Date
Minimum magnitude displayed is 2.5.

Coastal Water Temperatures

Place Temperature

Stations

Nearby Weather Stations

Station Location Temp. Windchill Dew Point Humidity Wind Precip. Elev Updated Type
                   

Watches & Warnings

There are currently no watches in effect.